sensor_id;sensor_type;location;lat;lon;timestamp;P1;durP1;ratioP1;P2;durP2;ratioP2
21802;SDS011;18591;47.080;22.214;2022-12-17T00:00:34;34.60;;;26.30;;
21802;SDS011;18591;47.080;22.214;2022-12-17T00:02:57;33.83;;;25.25;;
21802;SDS011;18591;47.080;22.214;2022-12-17T00:05:18;32.95;;;26.85;;
21802;SDS011;18591;47.080;22.214;2022-12-17T00:07:39;48.70;;;34.92;;
21802;SDS011;18591;47.080;22.214;2022-12-17T00:10:00;37.85;;;28.80;;
21802;SDS011;18591;47.080;22.214;2022-12-17T00:12:20;36.83;;;28.13;;
21802;SDS011;18591;47.080;22.214;2022-12-17T00:14:41;45.40;;;31.77;;
21802;SDS011;18591;47.080;22.214;2022-12-17T00:17:02;38.00;;;29.38;;
21802;SDS011;18591;47.080;22.214;2022-12-17T00:19:22;39.17;;;28.70;;
21802;SDS011;18591;47.080;22.214;2022-12-17T00:21:45;39.47;;;28.88;;
21802;SDS011;18591;47.080;22.214;2022-12-17T00:24:06;34.25;;;27.35;;
21802;SDS011;18591;47.080;22.214;2022-12-17T00:26:27;31.05;;;24.50;;
21802;SDS011;18591;47.080;22.214;2022-12-17T00:28:48;31.95;;;24.90;;
21802;SDS011;18591;47.080;22.214;2022-12-17T00:31:51;32.83;;;23.90;;
21802;SDS011;18591;47.080;22.214;2022-12-17T00:34:12;26.30;;;21.30;;
21802;SDS011;18591;47.080;22.214;2022-12-17T00:36:33;27.42;;;20.98;;
21802;SDS011;18591;47.080;22.214;2022-12-17T00:38:55;23.25;;;19.83;;
21802;SDS011;18591;47.080;22.214;2022-12-17T00:41:16;24.20;;;20.67;;
21802;SDS011;18591;47.080;22.214;2022-12-17T00:43:37;20.42;;;17.38;;
21802;SDS011;18591;47.080;22.214;2022-12-17T00:46:00;22.85;;;17.98;;
21802;SDS011;18591;47.080;22.214;2022-12-17T00:48:21;21.85;;;17.60;;
21802;SDS011;18591;47.080;22.214;2022-12-17T00:50:42;21.05;;;17.58;;
21802;SDS011;18591;47.080;22.214;2022-12-17T00:53:16;20.85;;;15.93;;
21802;SDS011;18591;47.080;22.214;2022-12-17T00:55:41;18.73;;;15.63;;
21802;SDS011;18591;47.080;22.214;2022-12-17T00:58:05;23.08;;;15.77;;
21802;SDS011;18591;47.080;22.214;2022-12-17T01:00:27;18.38;;;14.80;;
21802;SDS011;18591;47.080;22.214;2022-12-17T01:02:47;16.88;;;14.20;;
21802;SDS011;18591;47.080;22.214;2022-12-17T01:05:12;19.30;;;15.30;;
21802;SDS011;18591;47.080;22.214;2022-12-17T01:07:33;20.02;;;15.68;;
21802;SDS011;18591;47.080;22.214;2022-12-17T01:09:56;20.48;;;16.60;;
21802;SDS011;18591;47.080;22.214;2022-12-17T01:12:17;22.00;;;18.20;;
21802;SDS011;18591;47.080;22.214;2022-12-17T01:14:37;17.95;;;14.52;;
21802;SDS011;18591;47.080;22.214;2022-12-17T01:16:58;17.85;;;13.70;;
21802;SDS011;18591;47.080;22.214;2022-12-17T01:19:22;17.23;;;12.95;;
21802;SDS011;18591;47.080;22.214;2022-12-17T01:21:44;16.67;;;13.55;;
21802;SDS011;18591;47.080;22.214;2022-12-17T01:24:05;17.38;;;13.30;;
21802;SDS011;18591;47.080;22.214;2022-12-17T01:26:27;15.82;;;12.73;;
21802;SDS011;18591;47.080;22.214;2022-12-17T01:28:48;18.20;;;13.40;;
21802;SDS011;18591;47.080;22.214;2022-12-17T01:31:08;15.00;;;11.13;;
21802;SDS011;18591;47.080;22.214;2022-12-17T01:33:35;12.43;;;10.10;;
21802;SDS011;18591;47.080;22.214;2022-12-17T01:35:56;13.85;;;11.40;;
21802;SDS011;18591;47.080;22.214;2022-12-17T01:38:25;13.98;;;10.43;;
21802;SDS011;18591;47.080;22.214;2022-12-17T01:40:52;11.90;;;10.15;;
21802;SDS011;18591;47.080;22.214;2022-12-17T01:43:13;12.18;;;9.85;;
21802;SDS011;18591;47.080;22.214;2022-12-17T01:45:49;15.52;;;10.65;;
21802;SDS011;18591;47.080;22.214;2022-12-17T01:48:12;14.25;;;9.80;;
21802;SDS011;18591;47.080;22.214;2022-12-17T01:50:37;12.95;;;9.77;;
21802;SDS011;18591;47.080;22.214;2022-12-17T01:53:02;13.52;;;9.77;;
21802;SDS011;18591;47.080;22.214;2022-12-17T01:55:25;11.32;;;9.57;;
21802;SDS011;18591;47.080;22.214;2022-12-17T01:57:48;13.88;;;10.27;;
21802;SDS011;18591;47.080;22.214;2022-12-17T02:00:12;13.98;;;9.48;;
21802;SDS011;18591;47.080;22.214;2022-12-17T02:02:36;11.10;;;9.90;;
21802;SDS011;18591;47.080;22.214;2022-12-17T02:04:57;12.45;;;10.07;;
21802;SDS011;18591;47.080;22.214;2022-12-17T02:09:54;10.52;;;8.63;;
21802;SDS011;18591;47.080;22.214;2022-12-17T02:12:24;10.07;;;8.40;;
21802;SDS011;18591;47.080;22.214;2022-12-17T02:15:04;13.07;;;10.38;;
21802;SDS011;18591;47.080;22.214;2022-12-17T02:17:48;12.75;;;9.60;;
21802;SDS011;18591;47.080;22.214;2022-12-17T02:25:54;13.52;;;10.07;;
21802;SDS011;18591;47.080;22.214;2022-12-17T02:28:21;16.10;;;12.00;;
21802;SDS011;18591;47.080;22.214;2022-12-17T02:30:44;18.13;;;12.60;;
21802;SDS011;18591;47.080;22.214;2022-12-17T02:33:06;15.93;;;13.00;;
21802;SDS011;18591;47.080;22.214;2022-12-17T02:35:30;14.90;;;11.77;;
21802;SDS011;18591;47.080;22.214;2022-12-17T02:37:57;15.52;;;12.32;;
21802;SDS011;18591;47.080;22.214;2022-12-17T02:40:18;14.75;;;10.35;;
21802;SDS011;18591;47.080;22.214;2022-12-17T02:42:41;12.13;;;10.18;;
21802;SDS011;18591;47.080;22.214;2022-12-17T02:45:05;11.88;;;10.63;;
21802;SDS011;18591;47.080;22.214;2022-12-17T02:47:27;13.93;;;10.82;;
21802;SDS011;18591;47.080;22.214;2022-12-17T02:49:49;11.32;;;9.90;;
21802;SDS011;18591;47.080;22.214;2022-12-17T02:52:11;12.32;;;10.98;;
21802;SDS011;18591;47.080;22.214;2022-12-17T02:54:35;11.43;;;9.65;;
21802;SDS011;18591;47.080;22.214;2022-12-17T02:56:56;12.77;;;9.40;;
21802;SDS011;18591;47.080;22.214;2022-12-17T02:59:20;10.57;;;9.00;;
21802;SDS011;18591;47.080;22.214;2022-12-17T03:01:47;13.55;;;10.30;;
21802;SDS011;18591;47.080;22.214;2022-12-17T03:04:08;12.75;;;10.90;;
21802;SDS011;18591;47.080;22.214;2022-12-17T03:06:28;13.15;;;10.98;;
21802;SDS011;18591;47.080;22.214;2022-12-17T03:08:51;13.55;;;10.93;;
21802;SDS011;18591;47.080;22.214;2022-12-17T03:11:12;13.40;;;10.48;;
21802;SDS011;18591;47.080;22.214;2022-12-17T03:13:43;15.07;;;11.32;;
21802;SDS011;18591;47.080;22.214;2022-12-17T03:16:11;13.68;;;10.57;;
21802;SDS011;18591;47.080;22.214;2022-12-17T03:18:38;12.70;;;10.57;;
21802;SDS011;18591;47.080;22.214;2022-12-17T03:20:58;14.85;;;12.60;;
21802;SDS011;18591;47.080;22.214;2022-12-17T03:23:19;13.48;;;11.57;;
21802;SDS011;18591;47.080;22.214;2022-12-17T03:25:40;14.23;;;12.25;;
21802;SDS011;18591;47.080;22.214;2022-12-17T03:28:05;12.27;;;10.98;;
21802;SDS011;18591;47.080;22.214;2022-12-17T03:30:27;14.00;;;12.27;;
21802;SDS011;18591;47.080;22.214;2022-12-17T03:32:49;15.18;;;12.68;;
21802;SDS011;18591;47.080;22.214;2022-12-17T03:35:10;18.15;;;13.40;;
21802;SDS011;18591;47.080;22.214;2022-12-17T03:37:32;17.30;;;13.32;;
21802;SDS011;18591;47.080;22.214;2022-12-17T03:39:55;16.70;;;13.43;;
21802;SDS011;18591;47.080;22.214;2022-12-17T03:42:15;18.58;;;15.07;;
21802;SDS011;18591;47.080;22.214;2022-12-17T03:44:36;18.45;;;14.15;;
21802;SDS011;18591;47.080;22.214;2022-12-17T03:46:56;23.52;;;17.35;;
21802;SDS011;18591;47.080;22.214;2022-12-17T03:49:17;17.92;;;14.07;;
21802;SDS011;18591;47.080;22.214;2022-12-17T03:51:51;16.52;;;13.90;;
21802;SDS011;18591;47.080;22.214;2022-12-17T03:54:15;17.02;;;13.95;;
21802;SDS011;18591;47.080;22.214;2022-12-17T03:56:35;19.88;;;15.32;;
21802;SDS011;18591;47.080;22.214;2022-12-17T03:58:56;16.13;;;12.52;;
21802;SDS011;18591;47.080;22.214;2022-12-17T04:01:16;16.02;;;13.30;;
21802;SDS011;18591;47.080;22.214;2022-12-17T04:03:37;17.33;;;14.40;;
21802;SDS011;18591;47.080;22.214;2022-12-17T04:05:58;18.23;;;14.57;;
21802;SDS011;18591;47.080;22.214;2022-12-17T04:08:20;21.23;;;15.75;;
21802;SDS011;18591;47.080;22.214;2022-12-17T04:10:40;14.98;;;13.00;;
21802;SDS011;18591;47.080;22.214;2022-12-17T04:13:01;14.25;;;12.23;;
21802;SDS011;18591;47.080;22.214;2022-12-17T04:15:22;15.65;;;11.98;;
21802;SDS011;18591;47.080;22.214;2022-12-17T04:17:43;23.70;;;16.02;;
21802;SDS011;18591;47.080;22.214;2022-12-17T04:20:03;155.65;;;87.97;;
21802;SDS011;18591;47.080;22.214;2022-12-17T04:22:24;185.90;;;107.65;;
21802;SDS011;18591;47.080;22.214;2022-12-17T04:24:45;211.75;;;128.90;;
21802;SDS011;18591;47.080;22.214;2022-12-17T04:27:06;219.75;;;135.52;;
21802;SDS011;18591;47.080;22.214;2022-12-17T04:29:27;229.23;;;139.48;;
21802;SDS011;18591;47.080;22.214;2022-12-17T04:32:04;194.20;;;124.07;;
21802;SDS011;18591;47.080;22.214;2022-12-17T04:34:25;166.35;;;109.32;;
21802;SDS011;18591;47.080;22.214;2022-12-17T04:36:46;161.73;;;107.18;;
21802;SDS011;18591;47.080;22.214;2022-12-17T04:39:06;135.85;;;89.72;;
21802;SDS011;18591;47.080;22.214;2022-12-17T04:41:27;146.63;;;97.03;;
21802;SDS011;18591;47.080;22.214;2022-12-17T04:43:48;121.93;;;83.28;;
21802;SDS011;18591;47.080;22.214;2022-12-17T04:46:08;101.55;;;68.60;;
21802;SDS011;18591;47.080;22.214;2022-12-17T04:48:32;109.72;;;74.00;;
21802;SDS011;18591;47.080;22.214;2022-12-17T04:50:53;130.13;;;86.43;;
21802;SDS011;18591;47.080;22.214;2022-12-17T04:53:31;141.68;;;92.68;;
21802;SDS011;18591;47.080;22.214;2022-12-17T04:55:55;126.22;;;87.13;;
21802;SDS011;18591;47.080;22.214;2022-12-17T04:58:18;84.97;;;61.47;;
21802;SDS011;18591;47.080;22.214;2022-12-17T05:00:41;63.55;;;45.88;;
21802;SDS011;18591;47.080;22.214;2022-12-17T05:03:06;57.78;;;41.95;;
21802;SDS011;18591;47.080;22.214;2022-12-17T05:05:31;52.15;;;38.58;;
21802;SDS011;18591;47.080;22.214;2022-12-17T05:07:53;48.35;;;36.42;;
21802;SDS011;18591;47.080;22.214;2022-12-17T05:10:14;47.13;;;33.50;;
21802;SDS011;18591;47.080;22.214;2022-12-17T05:12:35;46.33;;;33.60;;
21802;SDS011;18591;47.080;22.214;2022-12-17T05:14:56;45.33;;;31.98;;
21802;SDS011;18591;47.080;22.214;2022-12-17T05:17:17;40.63;;;28.95;;
21802;SDS011;18591;47.080;22.214;2022-12-17T05:19:37;38.42;;;28.63;;
21802;SDS011;18591;47.080;22.214;2022-12-17T05:21:58;43.27;;;31.03;;
21802;SDS011;18591;47.080;22.214;2022-12-17T05:24:18;41.92;;;29.52;;
21802;SDS011;18591;47.080;22.214;2022-12-17T05:26:39;38.95;;;29.33;;
21802;SDS011;18591;47.080;22.214;2022-12-17T05:28:59;35.03;;;26.02;;
21802;SDS011;18591;47.080;22.214;2022-12-17T05:31:20;32.38;;;23.10;;
21802;SDS011;18591;47.080;22.214;2022-12-17T05:33:41;33.20;;;26.02;;
21802;SDS011;18591;47.080;22.214;2022-12-17T05:36:02;52.08;;;35.70;;
21802;SDS011;18591;47.080;22.214;2022-12-17T05:38:23;60.45;;;41.03;;
21802;SDS011;18591;47.080;22.214;2022-12-17T05:40:46;53.47;;;37.85;;
21802;SDS011;18591;47.080;22.214;2022-12-17T05:43:09;62.28;;;44.80;;
21802;SDS011;18591;47.080;22.214;2022-12-17T05:45:32;58.28;;;42.35;;
21802;SDS011;18591;47.080;22.214;2022-12-17T05:47:55;60.60;;;42.83;;
21802;SDS011;18591;47.080;22.214;2022-12-17T05:50:17;63.38;;;43.63;;
21802;SDS011;18591;47.080;22.214;2022-12-17T05:52:38;55.03;;;37.85;;
21802;SDS011;18591;47.080;22.214;2022-12-17T05:54:58;44.70;;;31.45;;
21802;SDS011;18591;47.080;22.214;2022-12-17T05:57:19;38.72;;;27.35;;
21802;SDS011;18591;47.080;22.214;2022-12-17T05:59:40;51.63;;;35.03;;
21802;SDS011;18591;47.080;22.214;2022-12-17T06:02:01;57.45;;;41.17;;
21802;SDS011;18591;47.080;22.214;2022-12-17T06:04:21;57.55;;;42.00;;
21802;SDS011;18591;47.080;22.214;2022-12-17T06:06:42;65.03;;;46.50;;
21802;SDS011;18591;47.080;22.214;2022-12-17T06:09:08;44.08;;;32.42;;
21802;SDS011;18591;47.080;22.214;2022-12-17T06:11:29;31.43;;;23.93;;
21802;SDS011;18591;47.080;22.214;2022-12-17T06:13:49;29.10;;;22.73;;
21802;SDS011;18591;47.080;22.214;2022-12-17T06:16:10;25.90;;;20.70;;
21802;SDS011;18591;47.080;22.214;2022-12-17T06:18:31;30.52;;;24.95;;
21802;SDS011;18591;47.080;22.214;2022-12-17T06:20:52;31.80;;;24.77;;
21802;SDS011;18591;47.080;22.214;2022-12-17T06:23:12;27.00;;;20.15;;
21802;SDS011;18591;47.080;22.214;2022-12-17T06:25:33;20.00;;;15.57;;
21802;SDS011;18591;47.080;22.214;2022-12-17T06:27:58;18.30;;;14.88;;
21802;SDS011;18591;47.080;22.214;2022-12-17T06:30:22;19.60;;;15.70;;
21802;SDS011;18591;47.080;22.214;2022-12-17T06:32:43;30.08;;;22.08;;
21802;SDS011;18591;47.080;22.214;2022-12-17T06:35:04;18.70;;;15.65;;
21802;SDS011;18591;47.080;22.214;2022-12-17T06:37:27;16.25;;;12.38;;
21802;SDS011;18591;47.080;22.214;2022-12-17T06:39:48;12.68;;;9.88;;
21802;SDS011;18591;47.080;22.214;2022-12-17T06:42:09;13.18;;;11.23;;
21802;SDS011;18591;47.080;22.214;2022-12-17T06:44:30;11.80;;;10.60;;
21802;SDS011;18591;47.080;22.214;2022-12-17T06:46:51;11.97;;;10.37;;
21802;SDS011;18591;47.080;22.214;2022-12-17T06:49:11;10.83;;;9.70;;
21802;SDS011;18591;47.080;22.214;2022-12-17T06:51:33;10.70;;;9.33;;
21802;SDS011;18591;47.080;22.214;2022-12-17T06:53:53;9.23;;;8.37;;
21802;SDS011;18591;47.080;22.214;2022-12-17T06:56:14;11.98;;;8.90;;
21802;SDS011;18591;47.080;22.214;2022-12-17T06:58:35;9.38;;;7.65;;
21802;SDS011;18591;47.080;22.214;2022-12-17T07:00:56;9.93;;;8.38;;
21802;SDS011;18591;47.080;22.214;2022-12-17T07:03:16;9.88;;;8.88;;
21802;SDS011;18591;47.080;22.214;2022-12-17T07:05:39;11.00;;;9.27;;
21802;SDS011;18591;47.080;22.214;2022-12-17T07:07:59;11.63;;;9.95;;
21802;SDS011;18591;47.080;22.214;2022-12-17T07:10:20;11.80;;;10.03;;
21802;SDS011;18591;47.080;22.214;2022-12-17T07:12:40;10.82;;;9.68;;
21802;SDS011;18591;47.080;22.214;2022-12-17T07:15:01;10.60;;;9.50;;
21802;SDS011;18591;47.080;22.214;2022-12-17T07:17:22;8.37;;;7.47;;
21802;SDS011;18591;47.080;22.214;2022-12-17T07:19:43;7.67;;;6.40;;
21802;SDS011;18591;47.080;22.214;2022-12-17T07:22:04;7.17;;;6.47;;
21802;SDS011;18591;47.080;22.214;2022-12-17T07:24:25;7.00;;;6.30;;
21802;SDS011;18591;47.080;22.214;2022-12-17T07:26:45;7.22;;;6.63;;
21802;SDS011;18591;47.080;22.214;2022-12-17T07:29:06;9.53;;;7.60;;
21802;SDS011;18591;47.080;22.214;2022-12-17T07:31:27;8.03;;;7.23;;
21802;SDS011;18591;47.080;22.214;2022-12-17T07:33:51;9.15;;;6.40;;
21802;SDS011;18591;47.080;22.214;2022-12-17T07:36:11;8.23;;;7.43;;
21802;SDS011;18591;47.080;22.214;2022-12-17T07:38:35;8.02;;;7.18;;
21802;SDS011;18591;47.080;22.214;2022-12-17T07:40:57;8.20;;;7.40;;
21802;SDS011;18591;47.080;22.214;2022-12-17T07:43:18;8.48;;;7.60;;
21802;SDS011;18591;47.080;22.214;2022-12-17T07:45:40;8.93;;;8.02;;
21802;SDS011;18591;47.080;22.214;2022-12-17T07:48:04;7.45;;;5.97;;
21802;SDS011;18591;47.080;22.214;2022-12-17T07:50:24;8.80;;;7.45;;
21802;SDS011;18591;47.080;22.214;2022-12-17T07:52:45;9.10;;;8.20;;
21802;SDS011;18591;47.080;22.214;2022-12-17T07:55:06;11.97;;;9.60;;
21802;SDS011;18591;47.080;22.214;2022-12-17T08:00:33;12.10;;;10.30;;
21802;SDS011;18591;47.080;22.214;2022-12-17T08:02:55;11.03;;;9.57;;
21802;SDS011;18591;47.080;22.214;2022-12-17T08:05:17;13.23;;;10.43;;
21802;SDS011;18591;47.080;22.214;2022-12-17T08:07:37;14.97;;;11.37;;
21802;SDS011;18591;47.080;22.214;2022-12-17T08:09:57;15.50;;;13.18;;
21802;SDS011;18591;47.080;22.214;2022-12-17T08:12:21;16.40;;;13.30;;
21802;SDS011;18591;47.080;22.214;2022-12-17T08:14:45;13.83;;;10.87;;
21802;SDS011;18591;47.080;22.214;2022-12-17T08:17:06;14.50;;;10.50;;
21802;SDS011;18591;47.080;22.214;2022-12-17T08:19:27;15.77;;;11.70;;
21802;SDS011;18591;47.080;22.214;2022-12-17T08:21:47;19.10;;;14.40;;
21802;SDS011;18591;47.080;22.214;2022-12-17T08:24:10;19.70;;;15.13;;
21802;SDS011;18591;47.080;22.214;2022-12-17T08:26:31;21.57;;;16.33;;
21802;SDS011;18591;47.080;22.214;2022-12-17T08:28:52;28.97;;;19.30;;
21802;SDS011;18591;47.080;22.214;2022-12-17T08:31:12;30.23;;;20.30;;
21802;SDS011;18591;47.080;22.214;2022-12-17T08:33:33;38.30;;;27.30;;
21802;SDS011;18591;47.080;22.214;2022-12-17T08:35:54;23.17;;;18.13;;
21802;SDS011;18591;47.080;22.214;2022-12-17T08:38:16;18.80;;;14.00;;
21802;SDS011;18591;47.080;22.214;2022-12-17T08:40:36;15.40;;;10.50;;
21802;SDS011;18591;47.080;22.214;2022-12-17T08:42:57;11.17;;;8.33;;
21802;SDS011;18591;47.080;22.214;2022-12-17T08:45:18;12.57;;;8.23;;
21802;SDS011;18591;47.080;22.214;2022-12-17T08:47:38;10.63;;;8.57;;
21802;SDS011;18591;47.080;22.214;2022-12-17T08:50:04;9.97;;;7.30;;
21802;SDS011;18591;47.080;22.214;2022-12-17T08:52:26;11.53;;;8.23;;
21802;SDS011;18591;47.080;22.214;2022-12-17T08:54:48;11.63;;;8.63;;
21802;SDS011;18591;47.080;22.214;2022-12-17T08:57:09;13.30;;;9.93;;
21802;SDS011;18591;47.080;22.214;2022-12-17T08:59:33;13.00;;;9.00;;
21802;SDS011;18591;47.080;22.214;2022-12-17T09:01:54;13.40;;;10.40;;
21802;SDS011;18591;47.080;22.214;2022-12-17T09:04:15;14.83;;;9.97;;
21802;SDS011;18591;47.080;22.214;2022-12-17T09:06:36;15.73;;;10.93;;
21802;SDS011;18591;47.080;22.214;2022-12-17T09:08:57;14.57;;;10.03;;
21802;SDS011;18591;47.080;22.214;2022-12-17T09:11:17;13.43;;;10.03;;
21802;SDS011;18591;47.080;22.214;2022-12-17T09:13:38;13.30;;;9.53;;
21802;SDS011;18591;47.080;22.214;2022-12-17T09:15:59;12.07;;;9.23;;
21802;SDS011;18591;47.080;22.214;2022-12-17T09:18:20;12.67;;;9.07;;
21802;SDS011;18591;47.080;22.214;2022-12-17T09:20:41;17.47;;;13.03;;
21802;SDS011;18591;47.080;22.214;2022-12-17T09:23:02;25.13;;;18.53;;
21802;SDS011;18591;47.080;22.214;2022-12-17T09:25:23;20.63;;;15.90;;
21802;SDS011;18591;47.080;22.214;2022-12-17T09:27:44;14.33;;;10.80;;
21802;SDS011;18591;47.080;22.214;2022-12-17T09:30:05;12.97;;;10.27;;
21802;SDS011;18591;47.080;22.214;2022-12-17T09:32:26;14.83;;;11.50;;
21802;SDS011;18591;47.080;22.214;2022-12-17T09:34:47;18.20;;;12.47;;
21802;SDS011;18591;47.080;22.214;2022-12-17T09:37:10;19.53;;;14.57;;
21802;SDS011;18591;47.080;22.214;2022-12-17T09:39:31;26.37;;;17.83;;
21802;SDS011;18591;47.080;22.214;2022-12-17T09:42:03;25.87;;;16.73;;
21802;SDS011;18591;47.080;22.214;2022-12-17T09:46:50;130.50;;;71.93;;
21802;SDS011;18591;47.080;22.214;2022-12-17T09:51:43;97.13;;;54.30;;
21802;SDS011;18591;47.080;22.214;2022-12-17T09:54:04;61.17;;;37.17;;
21802;SDS011;18591;47.080;22.214;2022-12-17T09:56:31;77.83;;;56.00;;
21802;SDS011;18591;47.080;22.214;2022-12-17T09:58:53;57.97;;;49.03;;
21802;SDS011;18591;47.080;22.214;2022-12-17T10:01:15;39.27;;;33.87;;
21802;SDS011;18591;47.080;22.214;2022-12-17T10:03:48;31.33;;;25.90;;
21802;SDS011;18591;47.080;22.214;2022-12-17T10:06:16;22.17;;;18.10;;
21802;SDS011;18591;47.080;22.214;2022-12-17T10:08:39;18.83;;;16.13;;
21802;SDS011;18591;47.080;22.214;2022-12-17T10:11:34;17.20;;;13.83;;
21802;SDS011;18591;47.080;22.214;2022-12-17T10:13:48;20.07;;;15.73;;
21802;SDS011;18591;47.080;22.214;2022-12-17T10:16:29;19.63;;;14.83;;
21802;SDS011;18591;47.080;22.214;2022-12-17T10:18:53;22.73;;;15.77;;
21802;SDS011;18591;47.080;22.214;2022-12-17T10:21:13;27.43;;;18.97;;
21802;SDS011;18591;47.080;22.214;2022-12-17T10:23:34;33.83;;;23.37;;
21802;SDS011;18591;47.080;22.214;2022-12-17T10:25:55;31.20;;;21.93;;
21802;SDS011;18591;47.080;22.214;2022-12-17T10:28:17;23.90;;;18.93;;
21802;SDS011;18591;47.080;22.214;2022-12-17T10:30:39;23.23;;;18.20;;
21802;SDS011;18591;47.080;22.214;2022-12-17T10:33:03;25.97;;;18.83;;
21802;SDS011;18591;47.080;22.214;2022-12-17T10:35:26;41.47;;;27.00;;
21802;SDS011;18591;47.080;22.214;2022-12-17T10:37:54;65.03;;;39.43;;
21802;SDS011;18591;47.080;22.214;2022-12-17T10:40:21;62.17;;;40.97;;
21802;SDS011;18591;47.080;22.214;2022-12-17T10:42:45;47.47;;;32.50;;
21802;SDS011;18591;47.080;22.214;2022-12-17T10:47:42;24.37;;;19.50;;
21802;SDS011;18591;47.080;22.214;2022-12-17T10:50:05;17.93;;;15.00;;
21802;SDS011;18591;47.080;22.214;2022-12-17T10:52:32;19.23;;;15.30;;
21802;SDS011;18591;47.080;22.214;2022-12-17T10:55:02;21.03;;;16.17;;
21802;SDS011;18591;47.080;22.214;2022-12-17T10:59:57;28.03;;;21.53;;
21802;SDS011;18591;47.080;22.214;2022-12-17T11:02:23;30.00;;;24.23;;
21802;SDS011;18591;47.080;22.214;2022-12-17T11:04:52;39.50;;;30.83;;
21802;SDS011;18591;47.080;22.214;2022-12-17T11:07:20;32.13;;;25.40;;
21802;SDS011;18591;47.080;22.214;2022-12-17T11:09:42;29.07;;;22.80;;
21802;SDS011;18591;47.080;22.214;2022-12-17T11:12:10;29.57;;;22.43;;
21802;SDS011;18591;47.080;22.214;2022-12-17T11:14:45;26.17;;;21.17;;
21802;SDS011;18591;47.080;22.214;2022-12-17T11:17:13;26.53;;;20.57;;
21802;SDS011;18591;47.080;22.214;2022-12-17T11:19:49;21.80;;;18.20;;
21802;SDS011;18591;47.080;22.214;2022-12-17T11:27:19;21.00;;;16.73;;
21802;SDS011;18591;47.080;22.214;2022-12-17T11:29:44;21.03;;;17.23;;
21802;SDS011;18591;47.080;22.214;2022-12-17T11:35:19;22.37;;;13.90;;
21802;SDS011;18591;47.080;22.214;2022-12-17T11:38:09;18.10;;;14.13;;
21802;SDS011;18591;47.080;22.214;2022-12-17T11:40:58;19.77;;;14.17;;
21802;SDS011;18591;47.080;22.214;2022-12-17T11:48:55;20.77;;;15.00;;
21802;SDS011;18591;47.080;22.214;2022-12-17T11:51:29;20.57;;;15.50;;
21802;SDS011;18591;47.080;22.214;2022-12-17T11:54:17;25.87;;;17.23;;
21802;SDS011;18591;47.080;22.214;2022-12-17T11:56:46;28.77;;;19.13;;
21802;SDS011;18591;47.080;22.214;2022-12-17T12:17:43;45.27;;;27.97;;
21802;SDS011;18591;47.080;22.214;2022-12-17T12:23:04;58.23;;;33.80;;
21802;SDS011;18591;47.080;22.214;2022-12-17T12:28:46;58.63;;;30.67;;
21802;SDS011;18591;47.080;22.214;2022-12-17T12:31:37;58.93;;;30.97;;
21802;SDS011;18591;47.080;22.214;2022-12-17T12:34:07;51.07;;;28.40;;
21802;SDS011;18591;47.080;22.214;2022-12-17T12:36:33;47.87;;;27.77;;
21802;SDS011;18591;47.080;22.214;2022-12-17T12:38:57;33.60;;;23.13;;
21802;SDS011;18591;47.080;22.214;2022-12-17T12:43:58;24.30;;;17.07;;
21802;SDS011;18591;47.080;22.214;2022-12-17T12:46:37;20.03;;;14.67;;
21802;SDS011;18591;47.080;22.214;2022-12-17T12:51:49;39.50;;;27.87;;
21802;SDS011;18591;47.080;22.214;2022-12-17T13:02:52;26.77;;;20.00;;
21802;SDS011;18591;47.080;22.214;2022-12-17T13:05:36;20.13;;;15.33;;
21802;SDS011;18591;47.080;22.214;2022-12-17T13:07:42;17.50;;;13.90;;
21802;SDS011;18591;47.080;22.214;2022-12-17T13:09:49;20.40;;;14.73;;
21802;SDS011;18591;47.080;22.214;2022-12-17T13:14:03;19.40;;;13.90;;
21802;SDS011;18591;47.080;22.214;2022-12-17T13:16:47;16.30;;;12.23;;
21802;SDS011;18591;47.080;22.214;2022-12-17T13:18:59;15.70;;;11.77;;
21802;SDS011;18591;47.080;22.214;2022-12-17T13:23:24;17.50;;;13.47;;
21802;SDS011;18591;47.080;22.214;2022-12-17T13:25:37;21.57;;;14.50;;
21802;SDS011;18591;47.080;22.214;2022-12-17T13:27:39;18.60;;;14.40;;
21802;SDS011;18591;47.080;22.214;2022-12-17T13:29:42;17.07;;;12.70;;
21802;SDS011;18591;47.080;22.214;2022-12-17T13:31:53;17.73;;;12.70;;
21802;SDS011;18591;47.080;22.214;2022-12-17T13:34:10;12.90;;;9.77;;
21802;SDS011;18591;47.080;22.214;2022-12-17T13:43:20;33.13;;;27.67;;
21802;SDS011;18591;47.080;22.214;2022-12-17T13:45:25;27.70;;;22.60;;
21802;SDS011;18591;47.080;22.214;2022-12-17T13:47:30;22.97;;;18.90;;
21802;SDS011;18591;47.080;22.214;2022-12-17T13:49:35;25.20;;;18.97;;
21802;SDS011;18591;47.080;22.214;2022-12-17T13:51:37;21.80;;;16.23;;
21802;SDS011;18591;47.080;22.214;2022-12-17T13:53:39;41.80;;;25.37;;
21802;SDS011;18591;47.080;22.214;2022-12-17T13:55:58;45.73;;;29.83;;
21802;SDS011;18591;47.080;22.214;2022-12-17T13:58:00;39.50;;;23.57;;
21802;SDS011;18591;47.080;22.214;2022-12-17T14:00:03;29.87;;;19.43;;
21802;SDS011;18591;47.080;22.214;2022-12-17T14:02:22;32.30;;;20.43;;
21802;SDS011;18591;47.080;22.214;2022-12-17T14:04:27;47.03;;;32.83;;
21802;SDS011;18591;47.080;22.214;2022-12-17T14:06:36;47.73;;;33.23;;
21802;SDS011;18591;47.080;22.214;2022-12-17T14:08:39;34.27;;;24.13;;
21802;SDS011;18591;47.080;22.214;2022-12-17T14:10:49;29.37;;;20.67;;
21802;SDS011;18591;47.080;22.214;2022-12-17T14:13:06;26.67;;;18.50;;
21802;SDS011;18591;47.080;22.214;2022-12-17T14:15:22;26.47;;;18.97;;
21802;SDS011;18591;47.080;22.214;2022-12-17T14:17:39;24.00;;;17.13;;
21802;SDS011;18591;47.080;22.214;2022-12-17T14:19:45;23.47;;;16.47;;
21802;SDS011;18591;47.080;22.214;2022-12-17T14:21:59;26.53;;;18.43;;
21802;SDS011;18591;47.080;22.214;2022-12-17T14:24:02;25.07;;;18.07;;
21802;SDS011;18591;47.080;22.214;2022-12-17T14:26:07;24.70;;;17.20;;
21802;SDS011;18591;47.080;22.214;2022-12-17T14:30:24;23.13;;;16.30;;
21802;SDS011;18591;47.080;22.214;2022-12-17T14:32:46;21.53;;;14.63;;
21802;SDS011;18591;47.080;22.214;2022-12-17T14:34:49;23.00;;;16.33;;
21802;SDS011;18591;47.080;22.214;2022-12-17T14:36:57;25.30;;;15.70;;
21802;SDS011;18591;47.080;22.214;2022-12-17T14:39:01;22.80;;;14.93;;
21802;SDS011;18591;47.080;22.214;2022-12-17T14:41:12;22.53;;;15.70;;
21802;SDS011;18591;47.080;22.214;2022-12-17T14:43:34;24.20;;;15.53;;
21802;SDS011;18591;47.080;22.214;2022-12-17T14:45:36;24.53;;;17.10;;
21802;SDS011;18591;47.080;22.214;2022-12-17T14:47:59;26.50;;;16.90;;
21802;SDS011;18591;47.080;22.214;2022-12-17T14:52:13;22.40;;;15.63;;
21802;SDS011;18591;47.080;22.214;2022-12-17T14:56:29;23.10;;;17.17;;
21802;SDS011;18591;47.080;22.214;2022-12-17T14:58:31;21.17;;;15.83;;
21802;SDS011;18591;47.080;22.214;2022-12-17T15:00:37;21.13;;;15.70;;
21802;SDS011;18591;47.080;22.214;2022-12-17T15:06:16;34.90;;;22.07;;
21802;SDS011;18591;47.080;22.214;2022-12-17T15:08:22;29.57;;;19.33;;
21802;SDS011;18591;47.080;22.214;2022-12-17T15:10:25;23.47;;;15.87;;
21802;SDS011;18591;47.080;22.214;2022-12-17T15:12:27;28.80;;;18.10;;